sensor_id;sensor_type;location;lat;lon;timestamp;pressure;altitude;pressure_sealevel;temperature;humidity
18275;BME280;19470;49.322;7.218;2022-12-07T00:02:24;98896.94;;;7.45;100.00
18275;BME280;19470;49.322;7.218;2022-12-07T00:04:50;98902.16;;;7.27;100.00
18275;BME280;19470;49.322;7.218;2022-12-07T00:07:17;98897.47;;;7.54;100.00
18275;BME280;19470;49.322;7.218;2022-12-07T00:09:43;98890.53;;;7.59;100.00
18275;BME280;19470;49.322;7.218;2022-12-07T00:12:10;98881.41;;;7.37;100.00
18275;BME280;19470;49.322;7.218;2022-12-07T00:14:37;98891.63;;;6.95;100.00
18275;BME280;19470;49.322;7.218;2022-12-07T00:17:04;98878.94;;;7.10;100.00
18275;BME280;19470;49.322;7.218;2022-12-07T00:19:31;98879.50;;;6.94;100.00
18275;BME280;19470;49.322;7.218;2022-12-07T00:21:57;98888.91;;;6.77;100.00
18275;BME280;19470;49.322;7.218;2022-12-07T00:24:24;98891.38;;;7.03;100.00
18275;BME280;19470;49.322;7.218;2022-12-07T00:26:50;98889.69;;;7.15;100.00
18275;BME280;19470;49.322;7.218;2022-12-07T00:29:18;98897.34;;;6.85;100.00
18275;BME280;19470;49.322;7.218;2022-12-07T00:31:46;98894.38;;;6.37;100.00
18275;BME280;19470;49.322;7.218;2022-12-07T00:34:15;98895.13;;;6.51;100.00
18275;BME280;19470;49.322;7.218;2022-12-07T00:36:42;98894.78;;;6.79;100.00
18275;BME280;19470;49.322;7.218;2022-12-07T00:39:09;98887.84;;;7.16;100.00
18275;BME280;19470;49.322;7.218;2022-12-07T00:41:35;98885.94;;;7.30;100.00
18275;BME280;19470;49.322;7.218;2022-12-07T00:44:02;98886.03;;;7.16;100.00
18275;BME280;19470;49.322;7.218;2022-12-07T00:46:29;98879.50;;;6.94;100.00
18275;BME280;19470;49.322;7.218;2022-12-07T00:48:57;98879.06;;;6.97;100.00
18275;BME280;19470;49.322;7.218;2022-12-07T00:51:24;98873.53;;;7.05;100.00
18275;BME280;19470;49.322;7.218;2022-12-07T00:53:52;98864.47;;;7.26;100.00
18275;BME280;19470;49.322;7.218;2022-12-07T00:56:21;98869.75;;;7.26;100.00
18275;BME280;19470;49.322;7.218;2022-12-07T00:58:52;98866.13;;;7.46;100.00
18275;BME280;19470;49.322;7.218;2022-12-07T01:01:18;98876.75;;;6.82;100.00
18275;BME280;19470;49.322;7.218;2022-12-07T01:03:45;98875.97;;;6.75;100.00
18275;BME280;19470;49.322;7.218;2022-12-07T01:06:15;98879.44;;;6.69;100.00
18275;BME280;19470;49.322;7.218;2022-12-07T01:08:43;98875.03;;;6.95;100.00
18275;BME280;19470;49.322;7.218;2022-12-07T01:11:12;98874.66;;;6.01;100.00
18275;BME280;19470;49.322;7.218;2022-12-07T01:13:39;98874.47;;;6.03;100.00
18275;BME280;19470;49.322;7.218;2022-12-07T01:16:07;98875.66;;;6.13;100.00
18275;BME280;19470;49.322;7.218;2022-12-07T01:18:35;98878.72;;;5.90;100.00
18275;BME280;19470;49.322;7.218;2022-12-07T01:21:03;98884.63;;;5.73;100.00
18275;BME280;19470;49.322;7.218;2022-12-07T01:23:33;98868.66;;;6.46;100.00
18275;BME280;19470;49.322;7.218;2022-12-07T01:26:03;98866.00;;;6.46;100.00
18275;BME280;19470;49.322;7.218;2022-12-07T01:28:30;98872.84;;;6.53;100.00
18275;BME280;19470;49.322;7.218;2022-12-07T01:30:58;98865.91;;;6.65;100.00
18275;BME280;19470;49.322;7.218;2022-12-07T01:33:27;98866.78;;;6.53;100.00
18275;BME280;19470;49.322;7.218;2022-12-07T01:35:54;98875.50;;;6.47;100.00
18275;BME280;19470;49.322;7.218;2022-12-07T01:38:20;98875.56;;;6.33;100.00
18275;BME280;19470;49.322;7.218;2022-12-07T01:40:54;98874.22;;;6.11;100.00
18275;BME280;19470;49.322;7.218;2022-12-07T01:43:22;98878.28;;;6.13;100.00
18275;BME280;19470;49.322;7.218;2022-12-07T01:45:50;98874.22;;;6.11;100.00
18275;BME280;19470;49.322;7.218;2022-12-07T01:48:18;98874.53;;;6.41;100.00
18275;BME280;19470;49.322;7.218;2022-12-07T01:50:47;98878.09;;;6.53;100.00
18275;BME280;19470;49.322;7.218;2022-12-07T01:53:16;98882.78;;;5.86;100.00
18275;BME280;19470;49.322;7.218;2022-12-07T01:55:46;98891.72;;;5.59;100.00
18275;BME280;19470;49.322;7.218;2022-12-07T01:58:16;98879.56;;;6.43;100.00
18275;BME280;19470;49.322;7.218;2022-12-07T02:00:42;98881.03;;;6.32;100.00
18275;BME280;19470;49.322;7.218;2022-12-07T02:03:13;98875.84;;;6.19;100.00
18275;BME280;19470;49.322;7.218;2022-12-07T02:05:41;98869.53;;;6.26;100.00
18275;BME280;19470;49.322;7.218;2022-12-07T02:08:09;98879.72;;;6.54;100.00
18275;BME280;19470;49.322;7.218;2022-12-07T02:10:37;98866.13;;;6.57;100.00
18275;BME280;19470;49.322;7.218;2022-12-07T02:13:09;98867.41;;;6.48;100.00
18275;BME280;19470;49.322;7.218;2022-12-07T02:15:45;98852.34;;;6.24;100.00
18275;BME280;19470;49.322;7.218;2022-12-07T02:18:22;98856.59;;;6.63;100.00
18275;BME280;19470;49.322;7.218;2022-12-07T02:20:56;98856.69;;;5.98;100.00
18275;BME280;19470;49.322;7.218;2022-12-07T02:23:41;98852.06;;;6.38;100.00
18275;BME280;19470;49.322;7.218;2022-12-07T02:29:27;98859.72;;;5.82;100.00
18275;BME280;19470;49.322;7.218;2022-12-07T02:32:00;98854.91;;;6.75;100.00
18275;BME280;19470;49.322;7.218;2022-12-07T02:34:37;98862.94;;;5.90;100.00
18275;BME280;19470;49.322;7.218;2022-12-07T02:37:10;98850.38;;;6.06;100.00
18275;BME280;19470;49.322;7.218;2022-12-07T02:39:42;98845.34;;;6.04;100.00
18275;BME280;19470;49.322;7.218;2022-12-07T02:42:14;98843.06;;;6.59;100.00
18275;BME280;19470;49.322;7.218;2022-12-07T02:44:43;98843.56;;;6.75;100.00
18275;BME280;19470;49.322;7.218;2022-12-07T02:47:14;98850.25;;;5.94;100.00
18275;BME280;19470;49.322;7.218;2022-12-07T02:49:42;98842.91;;;6.09;100.00
18275;BME280;19470;49.322;7.218;2022-12-07T02:52:08;98844.63;;;6.35;100.00
18275;BME280;19470;49.322;7.218;2022-12-07T02:54:35;98843.09;;;6.84;100.00
18275;BME280;19470;49.322;7.218;2022-12-07T02:57:12;98846.03;;;6.70;100.00
18275;BME280;19470;49.322;7.218;2022-12-07T02:59:50;98842.78;;;6.68;100.00
18275;BME280;19470;49.322;7.218;2022-12-07T03:02:31;98830.91;;;6.58;100.00
18275;BME280;19470;49.322;7.218;2022-12-07T03:05:13;98836.56;;;6.94;100.00
18275;BME280;19470;49.322;7.218;2022-12-07T03:07:48;98827.13;;;6.54;100.00
18275;BME280;19470;49.322;7.218;2022-12-07T03:10:22;98827.06;;;6.61;100.00
18275;BME280;19470;49.322;7.218;2022-12-07T03:12:57;98827.59;;;7.01;100.00
18275;BME280;19470;49.322;7.218;2022-12-07T03:15:32;98838.47;;;6.48;100.00
18275;BME280;19470;49.322;7.218;2022-12-07T03:18:02;98835.16;;;6.91;100.00
18275;BME280;19470;49.322;7.218;2022-12-07T03:20:31;98826.84;;;6.94;100.00
18275;BME280;19470;49.322;7.218;2022-12-07T03:22:59;98824.84;;;6.89;100.00
18275;BME280;19470;49.322;7.218;2022-12-07T03:25:26;98823.63;;;7.17;100.00
18275;BME280;19470;49.322;7.218;2022-12-07T03:27:57;98822.91;;;7.28;100.00
18275;BME280;19470;49.322;7.218;2022-12-07T03:30:29;98821.22;;;7.15;100.00
18275;BME280;19470;49.322;7.218;2022-12-07T03:33:01;98817.28;;;7.25;100.00
18275;BME280;19470;49.322;7.218;2022-12-07T03:35:33;98815.81;;;7.29;100.00
18275;BME280;19470;49.322;7.218;2022-12-07T03:38:07;98808.03;;;7.34;100.00
18275;BME280;19470;49.322;7.218;2022-12-07T03:40:38;98819.81;;;6.56;100.00
18275;BME280;19470;49.322;7.218;2022-12-07T03:43:07;98815.47;;;6.69;100.00
18275;BME280;19470;49.322;7.218;2022-12-07T03:45:38;98816.72;;;6.91;100.00
18275;BME280;19470;49.322;7.218;2022-12-07T03:48:08;98814.56;;;6.81;100.00
18275;BME280;19470;49.322;7.218;2022-12-07T03:50:41;98822.59;;;6.61;100.00
18275;BME280;19470;49.322;7.218;2022-12-07T03:53:14;98814.78;;;6.80;100.00
18275;BME280;19470;49.322;7.218;2022-12-07T03:55:44;98813.50;;;6.89;100.00
18275;BME280;19470;49.322;7.218;2022-12-07T03:58:13;98823.06;;;6.52;100.00
18275;BME280;19470;49.322;7.218;2022-12-07T04:00:43;98820.56;;;6.25;100.00
18275;BME280;19470;49.322;7.218;2022-12-07T04:03:10;98817.63;;;6.08;100.00
18275;BME280;19470;49.322;7.218;2022-12-07T04:05:37;98818.34;;;6.29;100.00
18275;BME280;19470;49.322;7.218;2022-12-07T04:08:04;98820.44;;;6.13;100.00
18275;BME280;19470;49.322;7.218;2022-12-07T04:10:30;98809.94;;;6.07;100.00
18275;BME280;19470;49.322;7.218;2022-12-07T04:12:57;98812.97;;;6.49;100.00
18275;BME280;19470;49.322;7.218;2022-12-07T04:15:23;98817.00;;;6.51;100.00
18275;BME280;19470;49.322;7.218;2022-12-07T04:17:52;98817.19;;;6.18;100.00
18275;BME280;19470;49.322;7.218;2022-12-07T04:20:19;98813.53;;;6.19;100.00
18275;BME280;19470;49.322;7.218;2022-12-07T04:22:45;98818.34;;;6.29;100.00
18275;BME280;19470;49.322;7.218;2022-12-07T04:25:12;98814.66;;;6.36;100.00
18275;BME280;19470;49.322;7.218;2022-12-07T04:27:38;98812.63;;;6.38;100.00
18275;BME280;19470;49.322;7.218;2022-12-07T04:30:06;98812.16;;;6.48;100.00
18275;BME280;19470;49.322;7.218;2022-12-07T04:32:33;98808.31;;;6.12;100.00
18275;BME280;19470;49.322;7.218;2022-12-07T04:35:01;98804.06;;;6.50;100.00
18275;BME280;19470;49.322;7.218;2022-12-07T04:37:27;98807.56;;;6.37;100.00
18275;BME280;19470;49.322;7.218;2022-12-07T04:39:54;98799.00;;;6.17;100.00
18275;BME280;19470;49.322;7.218;2022-12-07T04:42:20;98810.13;;;6.50;100.00
18275;BME280;19470;49.322;7.218;2022-12-07T04:44:47;98807.28;;;6.52;100.00
18275;BME280;19470;49.322;7.218;2022-12-07T04:47:13;98800.44;;;6.44;100.00
18275;BME280;19470;49.322;7.218;2022-12-07T04:49:39;98809.84;;;6.27;100.00
18275;BME280;19470;49.322;7.218;2022-12-07T04:52:07;98793.63;;;6.93;100.00
18275;BME280;19470;49.322;7.218;2022-12-07T04:54:34;98790.00;;;6.62;100.00
18275;BME280;19470;49.322;7.218;2022-12-07T04:57:00;98802.63;;;6.15;100.00
18275;BME280;19470;49.322;7.218;2022-12-07T04:59:27;98801.00;;;6.14;100.00
18275;BME280;19470;49.322;7.218;2022-12-07T05:01:53;98805.06;;;6.10;100.00
18275;BME280;19470;49.322;7.218;2022-12-07T05:04:20;98805.84;;;6.18;100.00
18275;BME280;19470;49.322;7.218;2022-12-07T05:06:46;98812.31;;;6.53;100.00
18275;BME280;19470;49.322;7.218;2022-12-07T05:09:14;98801.00;;;6.84;100.00
18275;BME280;19470;49.322;7.218;2022-12-07T05:11:41;98813.41;;;6.39;100.00
18275;BME280;19470;49.322;7.218;2022-12-07T05:14:11;98805.88;;;6.81;100.00
18275;BME280;19470;49.322;7.218;2022-12-07T05:16:38;98796.38;;;6.80;100.00
18275;BME280;19470;49.322;7.218;2022-12-07T05:19:06;98801.47;;;7.00;100.00
18275;BME280;19470;49.322;7.218;2022-12-07T05:21:33;98799.69;;;6.94;100.00
18275;BME280;19470;49.322;7.218;2022-12-07T05:23:59;98801.38;;;6.88;100.00
18275;BME280;19470;49.322;7.218;2022-12-07T05:26:28;98805.28;;;7.04;100.00
18275;BME280;19470;49.322;7.218;2022-12-07T05:28:55;98796.19;;;7.00;100.00
18275;BME280;19470;49.322;7.218;2022-12-07T05:31:23;98804.00;;;6.56;100.00
18275;BME280;19470;49.322;7.218;2022-12-07T05:33:50;98791.81;;;6.69;100.00
18275;BME280;19470;49.322;7.218;2022-12-07T05:36:17;98797.72;;;6.89;100.00
18275;BME280;19470;49.322;7.218;2022-12-07T05:38:43;98796.00;;;7.01;100.00
18275;BME280;19470;49.322;7.218;2022-12-07T05:41:13;98799.38;;;6.83;100.00
18275;BME280;19470;49.322;7.218;2022-12-07T05:43:55;98799.75;;;7.12;100.00
18275;BME280;19470;49.322;7.218;2022-12-07T05:46:22;98800.94;;;6.91;100.00
18275;BME280;19470;49.322;7.218;2022-12-07T05:48:48;98798.75;;;6.88;100.00
18275;BME280;19470;49.322;7.218;2022-12-07T05:51:15;98800.09;;;6.97;100.00
18275;BME280;19470;49.322;7.218;2022-12-07T05:53:41;98799.31;;;6.90;100.00
18275;BME280;19470;49.322;7.218;2022-12-07T05:56:08;98805.13;;;6.99;100.00
18275;BME280;19470;49.322;7.218;2022-12-07T05:58:34;98799.81;;;6.80;100.00
18275;BME280;19470;49.322;7.218;2022-12-07T06:01:19;98794.69;;;6.60;100.00
18275;BME280;19470;49.322;7.218;2022-12-07T06:03:45;98806.47;;;6.83;100.00
18275;BME280;19470;49.322;7.218;2022-12-07T06:06:12;98801.91;;;6.40;100.00
18275;BME280;19470;49.322;7.218;2022-12-07T06:08:38;98801.69;;;6.98;100.00
18275;BME280;19470;49.322;7.218;2022-12-07T06:11:05;98801.63;;;6.80;100.00
18275;BME280;19470;49.322;7.218;2022-12-07T06:13:49;98806.31;;;6.78;100.00
18275;BME280;19470;49.322;7.218;2022-12-07T06:16:16;98797.78;;;6.82;100.00
18275;BME280;19470;49.322;7.218;2022-12-07T06:22:05;98804.09;;;7.00;100.00
18275;BME280;19470;49.322;7.218;2022-12-07T06:24:32;98798.84;;;7.00;100.00
18275;BME280;19470;49.322;7.218;2022-12-07T06:26:59;98804.06;;;7.06;100.00
18275;BME280;19470;49.322;7.218;2022-12-07T06:29:26;98802.47;;;7.24;100.00
18275;BME280;19470;49.322;7.218;2022-12-07T06:31:52;98807.13;;;6.78;100.00
18275;BME280;19470;49.322;7.218;2022-12-07T06:34:20;98799.75;;;6.87;100.00
18275;BME280;19470;49.322;7.218;2022-12-07T06:36:48;98800.78;;;7.11;100.00
18275;BME280;19470;49.322;7.218;2022-12-07T06:39:18;98804.47;;;7.03;100.00
18275;BME280;19470;49.322;7.218;2022-12-07T06:41:45;98806.72;;;6.75;100.00
18275;BME280;19470;49.322;7.218;2022-12-07T06:44:12;98802.44;;;7.05;100.00
18275;BME280;19470;49.322;7.218;2022-12-07T06:46:38;98802.78;;;7.15;100.00
18275;BME280;19470;49.322;7.218;2022-12-07T06:49:05;98798.72;;;7.13;100.00
18275;BME280;19470;49.322;7.218;2022-12-07T06:51:32;98797.94;;;7.12;100.00
18275;BME280;19470;49.322;7.218;2022-12-07T06:54:00;98798.63;;;7.01;100.00
18275;BME280;19470;49.322;7.218;2022-12-07T06:56:28;98794.69;;;7.10;100.00
18275;BME280;19470;49.322;7.218;2022-12-07T06:58:55;98800.44;;;7.01;100.00
18275;BME280;19470;49.322;7.218;2022-12-07T07:01:21;98808.78;;;7.23;100.00
18275;BME280;19470;49.322;7.218;2022-12-07T07:03:48;98805.84;;;6.87;100.00
18275;BME280;19470;49.322;7.218;2022-12-07T07:06:14;98807.59;;;7.18;100.00
18275;BME280;19470;49.322;7.218;2022-12-07T07:08:41;98807.28;;;7.08;100.00
18275;BME280;19470;49.322;7.218;2022-12-07T07:11:08;98813.94;;;7.36;100.00
18275;BME280;19470;49.322;7.218;2022-12-07T07:13:36;98819.72;;;7.01;100.00
18275;BME280;19470;49.322;7.218;2022-12-07T07:16:04;98814.38;;;6.83;100.00
18275;BME280;19470;49.322;7.218;2022-12-07T07:18:30;98819.81;;;6.88;100.00
18275;BME280;19470;49.322;7.218;2022-12-07T07:20:58;98826.09;;;6.87;100.00
18275;BME280;19470;49.322;7.218;2022-12-07T07:23:24;98813.56;;;7.07;100.00
18275;BME280;19470;49.322;7.218;2022-12-07T07:25:51;98825.13;;;7.06;100.00
18275;BME280;19470;49.322;7.218;2022-12-07T07:28:18;98820.13;;;6.98;100.00
18275;BME280;19470;49.322;7.218;2022-12-07T07:30:45;98825.72;;;6.77;100.00
18275;BME280;19470;49.322;7.218;2022-12-07T07:33:12;98829.47;;;6.94;100.00
18275;BME280;19470;49.322;7.218;2022-12-07T07:35:39;98818.88;;;6.76;100.00
18275;BME280;19470;49.322;7.218;2022-12-07T07:38:05;98826.19;;;6.99;100.00
18275;BME280;19470;49.322;7.218;2022-12-07T07:40:32;98828.50;;;6.88;100.00
18275;BME280;19470;49.322;7.218;2022-12-07T07:42:59;98834.72;;;6.62;100.00
18275;BME280;19470;49.322;7.218;2022-12-07T07:45:26;98839.00;;;6.63;100.00
18275;BME280;19470;49.322;7.218;2022-12-07T07:47:54;98830.44;;;7.00;100.00
18275;BME280;19470;49.322;7.218;2022-12-07T07:50:21;98821.09;;;7.04;100.00
18275;BME280;19470;49.322;7.218;2022-12-07T07:52:48;98825.13;;;7.06;100.00
18275;BME280;19470;49.322;7.218;2022-12-07T07:55:15;98828.97;;;6.79;100.00
18275;BME280;19470;49.322;7.218;2022-12-07T07:57:41;98826.56;;;7.27;100.00
18275;BME280;19470;49.322;7.218;2022-12-07T08:00:10;98839.69;;;7.09;100.00
18275;BME280;19470;49.322;7.218;2022-12-07T08:02:37;98837.06;;;6.77;100.00
18275;BME280;19470;49.322;7.218;2022-12-07T08:05:06;98844.56;;;7.05;100.00
18275;BME280;19470;49.322;7.218;2022-12-07T08:07:33;98845.81;;;7.28;100.00
18275;BME280;19470;49.322;7.218;2022-12-07T08:09:59;98846.28;;;6.93;100.00
18275;BME280;19470;49.322;7.218;2022-12-07T08:12:26;98850.78;;;6.86;100.00
18275;BME280;19470;49.322;7.218;2022-12-07T08:14:52;98859.53;;;6.80;100.00
18275;BME280;19470;49.322;7.218;2022-12-07T08:17:19;98845.44;;;6.99;100.00
18275;BME280;19470;49.322;7.218;2022-12-07T08:19:45;98839.16;;;7.25;100.00
18275;BME280;19470;49.322;7.218;2022-12-07T08:22:13;98851.47;;;7.06;100.00
18275;BME280;19470;49.322;7.218;2022-12-07T08:24:40;98854.16;;;7.43;100.00
18275;BME280;19470;49.322;7.218;2022-12-07T08:27:06;98856.50;;;7.33;100.00
18275;BME280;19470;49.322;7.218;2022-12-07T08:29:33;98859.53;;;6.80;100.00
18275;BME280;19470;49.322;7.218;2022-12-07T08:31:59;98858.69;;;6.86;100.00
18275;BME280;19470;49.322;7.218;2022-12-07T08:34:27;98851.88;;;7.03;100.00
18275;BME280;19470;49.322;7.218;2022-12-07T08:36:53;98861.03;;;7.26;100.00
18275;BME280;19470;49.322;7.218;2022-12-07T08:39:21;98856.81;;;7.18;100.00
18275;BME280;19470;49.322;7.218;2022-12-07T08:41:48;98864.09;;;6.91;100.00
18275;BME280;19470;49.322;7.218;2022-12-07T08:44:14;98852.03;;;7.33;100.00
18275;BME280;19470;49.322;7.218;2022-12-07T08:46:44;98860.59;;;7.29;100.00
18275;BME280;19470;49.322;7.218;2022-12-07T08:49:15;98863.06;;;7.24;100.00
18275;BME280;19470;49.322;7.218;2022-12-07T08:51:42;98864.78;;;7.11;100.00
18275;BME280;19470;49.322;7.218;2022-12-07T08:54:12;98867.63;;;7.10;100.00
18275;BME280;19470;49.322;7.218;2022-12-07T08:56:42;98863.09;;;7.42;100.00
18275;BME280;19470;49.322;7.218;2022-12-07T08:59:10;98851.84;;;7.35;100.00
18275;BME280;19470;49.322;7.218;2022-12-07T09:01:38;98847.41;;;7.54;100.00
18275;BME280;19470;49.322;7.218;2022-12-07T09:04:05;98856.47;;;7.39;100.00
18275;BME280;19470;49.322;7.218;2022-12-07T09:06:31;98846.69;;;7.83;100.00
18275;BME280;19470;49.322;7.218;2022-12-07T09:08:58;98861.59;;;7.28;100.00
18275;BME280;19470;49.322;7.218;2022-12-07T09:11:26;98849.66;;;7.50;100.00
18275;BME280;19470;49.322;7.218;2022-12-07T09:13:54;98858.72;;;7.36;100.00
18275;BME280;19470;49.322;7.218;2022-12-07T09:16:21;98861.56;;;7.09;100.00
18275;BME280;19470;49.322;7.218;2022-12-07T09:18:47;98853.38;;;7.42;100.00
18275;BME280;19470;49.322;7.218;2022-12-07T09:21:14;98858.47;;;7.81;100.00
18275;BME280;19470;49.322;7.218;2022-12-07T09:23:41;98856.81;;;7.86;100.00
18275;BME280;19470;49.322;7.218;2022-12-07T09:26:07;98851.69;;;7.30;100.00
18275;BME280;19470;49.322;7.218;2022-12-07T09:28:34;98862.88;;;7.68;100.00
18275;BME280;19470;49.322;7.218;2022-12-07T09:31:02;98858.47;;;7.37;100.00
18275;BME280;19470;49.322;7.218;2022-12-07T09:33:29;98858.47;;;7.62;100.00
18275;BME280;19470;49.322;7.218;2022-12-07T09:35:56;98859.63;;;7.66;100.00
18275;BME280;19470;49.322;7.218;2022-12-07T09:38:22;98855.25;;;7.79;100.00
18275;BME280;19470;49.322;7.218;2022-12-07T09:40:49;98849.25;;;7.90;100.00
18275;BME280;19470;49.322;7.218;2022-12-07T09:43:18;98845.63;;;7.48;100.00
18275;BME280;19470;49.322;7.218;2022-12-07T09:45:46;98841.13;;;7.73;100.00
18275;BME280;19470;49.322;7.218;2022-12-07T09:48:17;98844.47;;;7.18;100.00
18275;BME280;19470;49.322;7.218;2022-12-07T09:50:46;98839.59;;;7.84;100.00
18275;BME280;19470;49.322;7.218;2022-12-07T09:53:24;98831.31;;;7.80;100.00
18275;BME280;19470;49.322;7.218;2022-12-07T09:55:51;98833.75;;;8.30;100.00
18275;BME280;19470;49.322;7.218;2022-12-07T09:58:20;98840.25;;;7.98;100.00
18275;BME280;19470;49.322;7.218;2022-12-07T10:00:49;98831.56;;;8.27;100.00
18275;BME280;19470;49.322;7.218;2022-12-07T10:03:17;98827.75;;;8.72;100.00
18275;BME280;19470;49.322;7.218;2022-12-07T10:05:46;98827.19;;;8.21;100.00
18275;BME280;19470;49.322;7.218;2022-12-07T10:08:14;98831.22;;;8.24;100.00
18275;BME280;19470;49.322;7.218;2022-12-07T10:10:43;98829.88;;;8.33;100.00
18275;BME280;19470;49.322;7.218;2022-12-07T10:13:12;98828.59;;;7.68;100.00
18275;BME280;19470;49.322;7.218;2022-12-07T10:15:47;98833.97;;;7.37;100.00
18275;BME280;19470;49.322;7.218;2022-12-07T10:18:28;98827.72;;;7.93;100.00
18275;BME280;19470;49.322;7.218;2022-12-07T10:21:08;98827.03;;;8.34;100.00
18275;BME280;19470;49.322;7.218;2022-12-07T10:23:38;98824.44;;;8.46;100.00
18275;BME280;19470;49.322;7.218;2022-12-07T10:26:26;98816.53;;;8.28;100.00
18275;BME280;19470;49.322;7.218;2022-12-07T10:28:54;98823.03;;;7.95;100.00
18275;BME280;19470;49.322;7.218;2022-12-07T10:31:22;98813.50;;;7.76;100.00
18275;BME280;19470;49.322;7.218;2022-12-07T10:33:52;98815.94;;;7.34;100.00
18275;BME280;19470;49.322;7.218;2022-12-07T10:36:24;98819.38;;;7.16;100.00
18275;BME280;19470;49.322;7.218;2022-12-07T10:38:52;98814.09;;;8.14;100.00
18275;BME280;19470;49.322;7.218;2022-12-07T10:41:19;98810.75;;;7.27;100.00
18275;BME280;19470;49.322;7.218;2022-12-07T10:43:51;98804.88;;;7.87;100.00
18275;BME280;19470;49.322;7.218;2022-12-07T10:46:58;98801.75;;;8.08;100.00
18275;BME280;19470;49.322;7.218;2022-12-07T10:49:54;98798.19;;;8.03;100.00
18275;BME280;19470;49.322;7.218;2022-12-07T10:52:33;98798.84;;;8.16;100.00
18275;BME280;19470;49.322;7.218;2022-12-07T10:55:13;98805.00;;;7.55;100.00
18275;BME280;19470;49.322;7.218;2022-12-07T10:57:54;98801.59;;;7.91;100.00
18275;BME280;19470;49.322;7.218;2022-12-07T11:00:23;98802.16;;;7.75;100.00
18275;BME280;19470;49.322;7.218;2022-12-07T11:05:51;98785.91;;;8.27;100.00
18275;BME280;19470;49.322;7.218;2022-12-07T11:08:31;98780.88;;;8.25;100.00
18275;BME280;19470;49.322;7.218;2022-12-07T11:11:06;98774.44;;;8.03;100.00
18275;BME280;19470;49.322;7.218;2022-12-07T11:13:41;98772.34;;;7.93;100.00
18275;BME280;19470;49.322;7.218;2022-12-07T11:16:23;98771.53;;;8.11;100.00
18275;BME280;19470;49.322;7.218;2022-12-07T11:19:06;98769.03;;;7.98;100.00
18275;BME280;19470;49.322;7.218;2022-12-07T11:21:45;98763.75;;;8.46;100.00
18275;BME280;19470;49.322;7.218;2022-12-07T11:24:16;98759.16;;;8.23;100.00
18275;BME280;19470;49.322;7.218;2022-12-07T11:26:58;98760.22;;;8.64;100.00
18275;BME280;19470;49.322;7.218;2022-12-07T11:29:45;98758.63;;;8.75;100.00
18275;BME280;19470;49.322;7.218;2022-12-07T11:32:18;98759.47;;;8.99;100.00
18275;BME280;19470;49.322;7.218;2022-12-07T11:34:55;98748.91;;;8.75;100.00
18275;BME280;19470;49.322;7.218;2022-12-07T11:37:31;98755.72;;;8.23;100.00
18275;BME280;19470;49.322;7.218;2022-12-07T11:40:00;98752.63;;;8.44;100.00
18275;BME280;19470;49.322;7.218;2022-12-07T11:42:30;98751.78;;;8.97;100.00
18275;BME280;19470;49.322;7.218;2022-12-07T11:45:02;98747.47;;;8.49;100.00
18275;BME280;19470;49.322;7.218;2022-12-07T11:47:35;98743.84;;;8.62;100.00
18275;BME280;19470;49.322;7.218;2022-12-07T11:50:13;98742.66;;;8.58;100.00
18275;BME280;19470;49.322;7.218;2022-12-07T11:52:49;98740.75;;;9.00;100.00
18275;BME280;19470;49.322;7.218;2022-12-07T11:55:21;98748.00;;;8.09;100.00
18275;BME280;19470;49.322;7.218;2022-12-07T11:57:58;98740.78;;;8.16;100.00
18275;BME280;19470;49.322;7.218;2022-12-07T12:00:28;98738.38;;;7.85;100.00
18275;BME280;19470;49.322;7.218;2022-12-07T12:02:59;98739.75;;;8.17;100.00
18275;BME280;19470;49.322;7.218;2022-12-07T12:05:28;98737.47;;;8.39;100.00
18275;BME280;19470;49.322;7.218;2022-12-07T12:08:01;98730.06;;;8.30;100.00
18275;BME280;19470;49.322;7.218;2022-12-07T12:10:40;98728.81;;;9.21;100.00
18275;BME280;19470;49.322;7.218;2022-12-07T12:13:28;98729.22;;;8.17;100.00
18275;BME280;19470;49.322;7.218;2022-12-07T12:16:08;98727.25;;;8.13;100.00
18275;BME280;19470;49.322;7.218;2022-12-07T12:18:50;98735.25;;;9.02;100.00
18275;BME280;19470;49.322;7.218;2022-12-07T12:21:22;98725.94;;;9.11;100.00
18275;BME280;19470;49.322;7.218;2022-12-07T12:23:58;98729.16;;;8.89;100.00
18275;BME280;19470;49.322;7.218;2022-12-07T12:26:29;98719.13;;;8.44;100.00
18275;BME280;19470;49.322;7.218;2022-12-07T12:28:58;98722.94;;;9.07;100.00
18275;BME280;19470;49.322;7.218;2022-12-07T12:31:33;98718.22;;;8.62;100.00
18275;BME280;19470;49.322;7.218;2022-12-07T12:34:03;98716.84;;;8.60;100.00
18275;BME280;19470;49.322;7.218;2022-12-07T12:36:45;98722.16;;;8.95;100.00
18275;BME280;19470;49.322;7.218;2022-12-07T12:39:15;98716.78;;;8.36;100.00
18275;BME280;19470;49.322;7.218;2022-12-07T12:41:57;98710.44;;;9.14;100.00
18275;BME280;19470;49.322;7.218;2022-12-07T12:44:41;98713.06;;;9.38;100.00
18275;BME280;19470;49.322;7.218;2022-12-07T12:50:30;98713.41;;;8.83;100.00
18275;BME280;19470;49.322;7.218;2022-12-07T12:53:12;98703.28;;;8.44;100.00
18275;BME280;19470;49.322;7.218;2022-12-07T12:55:58;98703.25;;;8.33;100.00
18275;BME280;19470;49.322;7.218;2022-12-07T12:58:38;98704.22;;;7.90;100.00
18275;BME280;19470;49.322;7.218;2022-12-07T13:04:24;98704.56;;;8.89;100.00
18275;BME280;19470;49.322;7.218;2022-12-07T13:06:52;98701.13;;;8.77;100.00
18275;BME280;19470;49.322;7.218;2022-12-07T13:09:21;98698.47;;;9.24;100.00
18275;BME280;19470;49.322;7.218;2022-12-07T13:11:56;98696.03;;;8.40;100.00
18275;BME280;19470;49.322;7.218;2022-12-07T13:14:43;98700.75;;;8.08;100.00
18275;BME280;19470;49.322;7.218;2022-12-07T13:17:11;98694.50;;;7.90;100.00
18275;BME280;19470;49.322;7.218;2022-12-07T13:19:59;98689.56;;;7.64;100.00
18275;BME280;19470;49.322;7.218;2022-12-07T13:22:50;98684.94;;;7.78;100.00
18275;BME280;19470;49.322;7.218;2022-12-07T13:25:21;98687.28;;;7.86;100.00
18275;BME280;19470;49.322;7.218;2022-12-07T13:27:56;98685.28;;;8.11;100.00
18275;BME280;19470;49.322;7.218;2022-12-07T13:30:23;98678.97;;;8.54;100.00
18275;BME280;19470;49.322;7.218;2022-12-07T13:32:55;98678.97;;;8.12;100.00